UAE526 OMDB-VOHS
Flight info
| Callsign | UAE526 |
|---|---|
| Flight time | 3h 18m |
| Altitude | 39000 |
| Route | IVURO M677 LALDO B505 NADSO A777 VAXIM P307 PARAR N571 DOGET/N0475F410 N571 SUGID DCT AROTA DCT BBB W28 PONIP NAMSA8 |
| Aircraft | B772/H-SDE2E3FGHIJ5LORVWXY/LB1D1 |
Departure
| Time | 2026-04-21 11:25 |
|---|---|
| Airport | Dubai International Airport (OMDB) |
Arrival
| Time | 2026-04-21 14:43 |
|---|---|
| Airport | Rajiv Gandhi International Airport (VOHS) |
| Time | Latitude | Longitude | Altitude | Speed | Heading |
|---|---|---|---|---|---|
| 2026-04-21 10:59 | 25.24799 | 55.36436 | 33 ft | 0 kts | 211° |
| 2026-04-21 11:15 | 25.24809 | 55.36443 | 33 ft | 2 kts | 211° |
| 2026-04-21 11:15 | 25.24817 | 55.36449 | 33 ft | 2 kts | 211° |
| 2026-04-21 11:15 | 25.24830 | 55.36456 | 33 ft | 2 kts | 198° |
| 2026-04-21 11:16 | 25.24845 | 55.36460 | 33 ft | 2 kts | 186° |
| 2026-04-21 11:16 | 25.24860 | 55.36460 | 33 ft | 2 kts | 176° |
| 2026-04-21 11:16 | 25.24875 | 55.36458 | 33 ft | 2 kts | 165° |
| 2026-04-21 11:16 | 25.24889 | 55.36453 | 34 ft | 2 kts | 155° |
| 2026-04-21 11:17 | 25.24902 | 55.36445 | 34 ft | 2 kts | 144° |
| 2026-04-21 11:17 | 25.24913 | 55.36434 | 34 ft | 2 kts | 133° |
| 2026-04-21 11:17 | 25.24922 | 55.36421 | 34 ft | 1 kts | 123° |
| 2026-04-21 11:17 | 25.24924 | 55.36418 | 34 ft | 0 kts | 121° |
| 2026-04-21 11:19 | 25.24907 | 55.36448 | 35 ft | 9 kts | 122° |
| 2026-04-21 11:19 | 25.24860 | 55.36533 | 39 ft | 16 kts | 120° |
| 2026-04-21 11:20 | 25.24800 | 55.36659 | 47 ft | 20 kts | 111° |
| 2026-04-21 11:20 | 25.24753 | 55.36835 | 43 ft | 26 kts | 115° |
| 2026-04-21 11:20 | 25.24663 | 55.37009 | 48 ft | 26 kts | 121° |
| 2026-04-21 11:20 | 25.24565 | 55.37186 | 51 ft | 27 kts | 121° |
| 2026-04-21 11:21 | 25.24470 | 55.37357 | 56 ft | 25 kts | 121° |
| 2026-04-21 11:21 | 25.24428 | 55.37560 | 52 ft | 28 kts | 94° |
| 2026-04-21 11:21 | 25.24372 | 55.37718 | 53 ft | 22 kts | 121° |
| 2026-04-21 11:21 | 25.24292 | 55.37861 | 58 ft | 21 kts | 121° |
| 2026-04-21 11:22 | 25.24214 | 55.38004 | 58 ft | 22 kts | 121° |
| 2026-04-21 11:22 | 25.24131 | 55.38154 | 61 ft | 23 kts | 121° |
| 2026-04-21 11:22 | 25.24044 | 55.38310 | 61 ft | 25 kts | 121° |
| 2026-04-21 11:22 | 25.23950 | 55.38481 | 61 ft | 26 kts | 121° |
| 2026-04-21 11:23 | 25.23848 | 55.38665 | 61 ft | 28 kts | 121° |
| 2026-04-21 11:23 | 25.23741 | 55.38859 | 62 ft | 30 kts | 121° |
| 2026-04-21 11:23 | 25.23628 | 55.39060 | 65 ft | 31 kts | 121° |
| 2026-04-21 11:23 | 25.23517 | 55.39259 | 66 ft | 19 kts | 122° |
| 2026-04-21 11:24 | 25.23557 | 55.39372 | 67 ft | 20 kts | 32° |
| 2026-04-21 11:24 | 25.23674 | 55.39341 | 65 ft | 24 kts | 302° |
| 2026-04-21 11:24 | 25.23815 | 55.39087 | 63 ft | 67 kts | 301° |
| 2026-04-21 11:24 | 25.24187 | 55.38416 | 61 ft | 132 kts | 301° |
| 2026-04-21 11:25 | 25.24756 | 55.37380 | 106 ft | 177 kts | 303° |
| 2026-04-21 11:25 | 25.25429 | 55.36205 | 523 ft | 187 kts | 306° |
| 2026-04-21 11:25 | 25.26152 | 55.35022 | 1359 ft | 182 kts | 306° |
| 2026-04-21 11:25 | 25.26887 | 55.33833 | 1704 ft | 197 kts | 306° |
| 2026-04-21 11:26 | 25.27702 | 55.32511 | 1959 ft | 218 kts | 306° |
| 2026-04-21 11:26 | 25.28565 | 55.31106 | 2470 ft | 226 kts | 307° |
| 2026-04-21 11:26 | 25.29721 | 55.29962 | 3052 ft | 228 kts | 335° |
| 2026-04-21 11:26 | 25.31275 | 55.29565 | 3673 ft | 230 kts | 356° |
| 2026-04-21 11:27 | 25.32868 | 55.29548 | 4289 ft | 233 kts | 360° |
| 2026-04-21 11:27 | 25.34515 | 55.29590 | 4839 ft | 239 kts | 0° |
| 2026-04-21 11:27 | 25.36179 | 55.29635 | 5473 ft | 241 kts | 0° |
| 2026-04-21 11:27 | 25.37872 | 55.29677 | 6046 ft | 244 kts | 0° |
| 2026-04-21 11:28 | 25.39534 | 55.30069 | 6622 ft | 251 kts | 26° |
| 2026-04-21 11:28 | 25.40928 | 55.31287 | 7032 ft | 265 kts | 45° |
| 2026-04-21 11:28 | 25.42163 | 55.32897 | 7265 ft | 284 kts | 50° |
| 2026-04-21 11:28 | 25.43414 | 55.34631 | 7691 ft | 294 kts | 50° |
| 2026-04-21 11:29 | 25.44694 | 55.36396 | 8267 ft | 296 kts | 50° |
| 2026-04-21 11:29 | 25.45991 | 55.38173 | 8826 ft | 299 kts | 49° |
| 2026-04-21 11:29 | 25.47310 | 55.39975 | 9379 ft | 304 kts | 49° |
| 2026-04-21 11:29 | 25.48644 | 55.41799 | 10000 ft | 307 kts | 50° |
| 2026-04-21 11:30 | 25.50001 | 55.43729 | 10293 ft | 323 kts | 51° |
| 2026-04-21 11:30 | 25.51293 | 55.45835 | 10538 ft | 341 kts | 62° |
| 2026-04-21 11:30 | 25.52064 | 55.48380 | 10760 ft | 358 kts | 80° |
| 2026-04-21 11:30 | 25.52127 | 55.51183 | 11019 ft | 372 kts | 97° |
| 2026-04-21 11:31 | 25.51461 | 55.53978 | 11290 ft | 385 kts | 114° |
| 2026-04-21 11:31 | 25.50121 | 55.56579 | 11592 ft | 395 kts | 124° |
| 2026-04-21 11:31 | 25.48614 | 55.59113 | 12106 ft | 399 kts | 124° |
| 2026-04-21 11:31 | 25.47101 | 55.61678 | 12772 ft | 400 kts | 124° |
| 2026-04-21 11:32 | 25.45594 | 55.64257 | 13496 ft | 401 kts | 125° |
| 2026-04-21 11:32 | 25.44076 | 55.66867 | 14064 ft | 408 kts | 124° |
| 2026-04-21 11:32 | 25.42737 | 55.69675 | 14595 ft | 419 kts | 114° |
| 2026-04-21 11:32 | 25.41845 | 55.72757 | 15233 ft | 425 kts | 105° |
| 2026-04-21 11:33 | 25.41163 | 55.75961 | 16053 ft | 428 kts | 105° |
| 2026-04-21 11:33 | 25.40493 | 55.79167 | 16682 ft | 434 kts | 104° |
| 2026-04-21 11:33 | 25.39810 | 55.82418 | 17288 ft | 441 kts | 104° |
| 2026-04-21 11:33 | 25.39110 | 55.85728 | 17875 ft | 447 kts | 105° |
| 2026-04-21 11:34 | 25.38402 | 55.89066 | 18610 ft | 449 kts | 105° |
| 2026-04-21 11:34 | 25.37686 | 55.92430 | 19287 ft | 454 kts | 105° |
| 2026-04-21 11:34 | 25.36959 | 55.95836 | 19885 ft | 459 kts | 105° |
| 2026-04-21 11:34 | 25.36224 | 55.99274 | 20548 ft | 464 kts | 105° |
| 2026-04-21 11:35 | 25.35479 | 56.02754 | 21177 ft | 468 kts | 105° |
| 2026-04-21 11:35 | 25.34726 | 56.06262 | 21781 ft | 473 kts | 105° |
| 2026-04-21 11:35 | 25.33963 | 56.09813 | 22370 ft | 478 kts | 105° |
| 2026-04-21 11:35 | 25.33192 | 56.13396 | 22972 ft | 482 kts | 105° |
| 2026-04-21 11:36 | 25.32621 | 56.17048 | 23562 ft | 487 kts | 98° |
| 2026-04-21 11:36 | 25.32290 | 56.20799 | 24170 ft | 491 kts | 96° |
| 2026-04-21 11:36 | 25.31983 | 56.24558 | 24781 ft | 494 kts | 96° |
| 2026-04-21 11:36 | 25.31677 | 56.28298 | 25367 ft | 497 kts | 96° |
| 2026-04-21 11:37 | 25.31360 | 56.32133 | 25928 ft | 500 kts | 96° |
| 2026-04-21 11:37 | 25.31040 | 56.35980 | 26420 ft | 505 kts | 96° |
| 2026-04-21 11:37 | 25.30719 | 56.39823 | 26916 ft | 509 kts | 96° |
| 2026-04-21 11:37 | 25.30523 | 56.43750 | 27450 ft | 512 kts | 92° |
| 2026-04-21 11:38 | 25.30428 | 56.47644 | 27979 ft | 515 kts | 91° |
| 2026-04-21 11:38 | 25.30333 | 56.51597 | 28459 ft | 519 kts | 92° |
| 2026-04-21 11:38 | 25.30217 | 56.55621 | 28931 ft | 522 kts | 94° |
| 2026-04-21 11:38 | 25.29741 | 56.59544 | 29498 ft | 523 kts | 103° |
| 2026-04-21 11:39 | 25.28722 | 56.63391 | 30196 ft | 520 kts | 111° |
| 2026-04-21 11:39 | 25.27391 | 56.67105 | 30876 ft | 518 kts | 114° |
| 2026-04-21 11:39 | 25.26018 | 56.70785 | 31504 ft | 517 kts | 114° |
| 2026-04-21 11:39 | 25.24628 | 56.74487 | 32118 ft | 516 kts | 114° |
| 2026-04-21 11:40 | 25.23230 | 56.78197 | 32674 ft | 516 kts | 114° |
| 2026-04-21 11:40 | 25.21857 | 56.81833 | 33205 ft | 516 kts | 114° |
| 2026-04-21 11:40 | 25.20472 | 56.85492 | 33819 ft | 515 kts | 114° |
| 2026-04-21 11:40 | 25.19109 | 56.89087 | 34340 ft | 515 kts | 114° |
| 2026-04-21 11:41 | 25.17722 | 56.92741 | 34706 ft | 518 kts | 113° |
| 2026-04-21 11:41 | 25.16318 | 56.96432 | 35026 ft | 522 kts | 114° |
| 2026-04-21 11:41 | 25.14913 | 57.00120 | 35408 ft | 524 kts | 113° |
| 2026-04-21 11:41 | 25.13507 | 57.03799 | 35838 ft | 524 kts | 113° |
| 2026-04-21 11:42 | 25.12079 | 57.07536 | 36234 ft | 524 kts | 113° |
| 2026-04-21 11:42 | 25.10667 | 57.11230 | 36519 ft | 527 kts | 112° |
| 2026-04-21 11:42 | 25.09248 | 57.14948 | 36718 ft | 531 kts | 112° |
| 2026-04-21 11:42 | 25.07818 | 57.18691 | 37037 ft | 532 kts | 112° |
| 2026-04-21 11:43 | 25.06383 | 57.22442 | 37423 ft | 532 kts | 112° |
| 2026-04-21 11:43 | 25.04940 | 57.26207 | 37743 ft | 532 kts | 112° |
| 2026-04-21 11:43 | 25.03495 | 57.29974 | 37969 ft | 535 kts | 111° |
| 2026-04-21 11:43 | 25.02042 | 57.33757 | 38132 ft | 538 kts | 112° |
| 2026-04-21 11:44 | 25.00590 | 57.37536 | 38408 ft | 538 kts | 112° |
| 2026-04-21 11:44 | 24.99132 | 57.41322 | 38692 ft | 539 kts | 111° |
| 2026-04-21 11:44 | 24.96182 | 57.48980 | 38799 ft | 542 kts | 111° |
| 2026-04-21 11:45 | 24.93248 | 57.56576 | 38805 ft | 539 kts | 111° |
| 2026-04-21 11:45 | 24.90308 | 57.64173 | 38797 ft | 540 kts | 111° |
| 2026-04-21 11:46 | 24.87365 | 57.71768 | 38773 ft | 538 kts | 112° |
| 2026-04-21 11:46 | 24.84666 | 57.78713 | 38784 ft | 538 kts | 112° |
| 2026-04-21 11:47 | 24.83682 | 57.81244 | 38777 ft | 538 kts | 111° |
| 2026-04-21 11:47 | 24.80574 | 57.88679 | 38775 ft | 538 kts | 115° |
| 2026-04-21 11:48 | 24.77307 | 57.96093 | 38781 ft | 539 kts | 115° |
| 2026-04-21 11:48 | 24.74047 | 58.03496 | 38781 ft | 537 kts | 114° |
| 2026-04-21 11:49 | 24.70802 | 58.10883 | 38788 ft | 536 kts | 114° |
| 2026-04-21 11:49 | 24.67554 | 58.18277 | 38786 ft | 538 kts | 115° |
| 2026-04-21 11:50 | 24.64301 | 58.25671 | 38792 ft | 536 kts | 114° |
| 2026-04-21 11:50 | 24.61058 | 58.33038 | 38791 ft | 535 kts | 114° |
| 2026-04-21 11:51 | 24.57824 | 58.40376 | 38787 ft | 536 kts | 114° |
| 2026-04-21 11:51 | 24.54580 | 58.47729 | 38790 ft | 534 kts | 114° |
| 2026-04-21 11:52 | 24.51339 | 58.55067 | 38791 ft | 535 kts | 114° |
| 2026-04-21 11:52 | 24.48095 | 58.62399 | 38793 ft | 533 kts | 114° |
| 2026-04-21 11:53 | 24.44858 | 58.69701 | 38789 ft | 533 kts | 114° |
| 2026-04-21 11:53 | 24.41631 | 58.76965 | 38785 ft | 532 kts | 114° |
| 2026-04-21 11:54 | 24.38400 | 58.84230 | 38779 ft | 530 kts | 114° |
| 2026-04-21 11:54 | 24.35145 | 58.91542 | 38786 ft | 530 kts | 114° |
| 2026-04-21 11:55 | 24.31928 | 58.98761 | 38795 ft | 529 kts | 114° |
| 2026-04-21 11:55 | 24.28679 | 59.06038 | 38787 ft | 529 kts | 114° |
| 2026-04-21 11:56 | 24.25468 | 59.13220 | 38791 ft | 527 kts | 114° |
| 2026-04-21 11:56 | 24.22237 | 59.20435 | 38788 ft | 524 kts | 113° |
| 2026-04-21 11:57 | 24.19026 | 59.27597 | 38788 ft | 528 kts | 114° |
| 2026-04-21 11:57 | 24.15789 | 59.34803 | 38793 ft | 526 kts | 114° |
| 2026-04-21 11:58 | 24.12555 | 59.41989 | 38797 ft | 524 kts | 113° |
| 2026-04-21 11:58 | 24.09336 | 59.49133 | 38792 ft | 522 kts | 113° |
| 2026-04-21 11:59 | 24.06123 | 59.56255 | 38794 ft | 526 kts | 113° |
| 2026-04-21 11:59 | 24.02904 | 59.63377 | 38795 ft | 520 kts | 113° |
| 2026-04-21 12:00 | 23.99690 | 59.70477 | 38787 ft | 522 kts | 114° |
| 2026-04-21 12:00 | 23.96464 | 59.77593 | 38788 ft | 521 kts | 114° |
| 2026-04-21 12:01 | 23.93245 | 59.84682 | 38791 ft | 521 kts | 113° |
| 2026-04-21 12:01 | 23.90031 | 59.91752 | 38794 ft | 521 kts | 114° |
| 2026-04-21 12:02 | 23.85193 | 60.02371 | 38781 ft | 521 kts | 114° |
| 2026-04-21 12:03 | 23.81987 | 60.09392 | 38783 ft | 517 kts | 113° |
| 2026-04-21 12:03 | 23.78772 | 60.16427 | 38785 ft | 518 kts | 113° |
| 2026-04-21 12:04 | 23.75545 | 60.23478 | 38789 ft | 518 kts | 113° |
| 2026-04-21 12:04 | 23.72323 | 60.30502 | 38791 ft | 516 kts | 113° |
| 2026-04-21 12:05 | 23.69123 | 60.37472 | 38791 ft | 516 kts | 113° |
| 2026-04-21 12:05 | 23.65908 | 60.44465 | 38795 ft | 517 kts | 113° |
| 2026-04-21 12:06 | 23.62708 | 60.51414 | 38795 ft | 513 kts | 113° |
| 2026-04-21 12:06 | 23.59504 | 60.58361 | 38799 ft | 514 kts | 113° |
| 2026-04-21 12:07 | 23.56295 | 60.65310 | 38798 ft | 512 kts | 113° |
| 2026-04-21 12:07 | 23.53087 | 60.72244 | 38796 ft | 511 kts | 114° |
| 2026-04-21 12:08 | 23.49873 | 60.79186 | 38795 ft | 515 kts | 113° |
| 2026-04-21 12:08 | 23.46658 | 60.86115 | 38799 ft | 510 kts | 113° |
| 2026-04-21 12:09 | 23.43472 | 60.92974 | 38802 ft | 511 kts | 113° |
| 2026-04-21 12:09 | 23.40256 | 60.99887 | 38804 ft | 510 kts | 113° |
| 2026-04-21 12:10 | 23.37053 | 61.06764 | 38807 ft | 510 kts | 113° |
| 2026-04-21 12:10 | 23.33871 | 61.13583 | 38813 ft | 508 kts | 113° |
| 2026-04-21 12:11 | 23.30682 | 61.20452 | 38812 ft | 504 kts | 112° |
| 2026-04-21 12:11 | 23.27656 | 61.27285 | 38808 ft | 504 kts | 111° |
| 2026-04-21 12:12 | 23.24601 | 61.34176 | 38808 ft | 505 kts | 112° |
| 2026-04-21 12:12 | 23.21562 | 61.41011 | 38817 ft | 504 kts | 111° |
| 2026-04-21 12:13 | 23.18516 | 61.47848 | 38815 ft | 503 kts | 111° |
| 2026-04-21 12:13 | 23.15469 | 61.54670 | 38812 ft | 502 kts | 112° |
| 2026-04-21 12:14 | 23.12416 | 61.61499 | 38816 ft | 502 kts | 112° |
| 2026-04-21 12:14 | 23.09353 | 61.68338 | 38819 ft | 503 kts | 112° |
| 2026-04-21 12:15 | 23.06315 | 61.75111 | 38807 ft | 499 kts | 112° |
| 2026-04-21 12:15 | 23.03259 | 61.81916 | 38814 ft | 502 kts | 112° |
| 2026-04-21 12:16 | 23.00224 | 61.88660 | 38812 ft | 496 kts | 112° |
| 2026-04-21 12:16 | 22.97190 | 61.95397 | 38815 ft | 499 kts | 112° |
| 2026-04-21 12:17 | 22.94132 | 62.02177 | 38811 ft | 499 kts | 112° |
| 2026-04-21 12:17 | 22.91103 | 62.08883 | 38825 ft | 498 kts | 113° |
| 2026-04-21 12:18 | 22.88055 | 62.15622 | 38807 ft | 497 kts | 113° |
| 2026-04-21 12:18 | 22.85001 | 62.22366 | 38807 ft | 497 kts | 113° |
| 2026-04-21 12:19 | 22.81957 | 62.29078 | 38818 ft | 498 kts | 113° |
| 2026-04-21 12:19 | 22.78902 | 62.35804 | 38820 ft | 497 kts | 113° |
| 2026-04-21 12:20 | 22.75849 | 62.42518 | 38819 ft | 499 kts | 114° |
| 2026-04-21 12:20 | 22.72785 | 62.49245 | 38827 ft | 496 kts | 114° |
| 2026-04-21 12:21 | 22.69721 | 62.55964 | 38824 ft | 499 kts | 114° |
| 2026-04-21 12:21 | 22.66654 | 62.62678 | 38829 ft | 497 kts | 114° |
| 2026-04-21 12:22 | 22.63599 | 62.69360 | 38830 ft | 496 kts | 115° |
| 2026-04-21 12:22 | 22.60535 | 62.76049 | 38835 ft | 496 kts | 115° |
| 2026-04-21 12:23 | 22.57468 | 62.82738 | 38835 ft | 495 kts | 115° |
| 2026-04-21 12:23 | 22.54413 | 62.89390 | 38834 ft | 494 kts | 115° |
| 2026-04-21 12:24 | 22.51357 | 62.96038 | 38837 ft | 495 kts | 115° |
| 2026-04-21 12:24 | 22.48303 | 63.02672 | 38842 ft | 491 kts | 116° |
| 2026-04-21 12:25 | 22.45238 | 63.09321 | 38839 ft | 494 kts | 116° |
| 2026-04-21 12:25 | 22.42224 | 63.15948 | 38843 ft | 493 kts | 115° |
| 2026-04-21 12:26 | 22.39253 | 63.22614 | 38838 ft | 492 kts | 115° |
| 2026-04-21 12:26 | 22.36271 | 63.29289 | 38838 ft | 494 kts | 115° |
| 2026-04-21 12:27 | 22.33293 | 63.35940 | 38854 ft | 492 kts | 115° |
| 2026-04-21 12:27 | 22.30318 | 63.42573 | 38854 ft | 491 kts | 115° |
| 2026-04-21 12:28 | 22.27346 | 63.49188 | 38849 ft | 493 kts | 115° |
| 2026-04-21 12:28 | 22.24360 | 63.55826 | 38840 ft | 490 kts | 115° |
| 2026-04-21 12:29 | 22.21383 | 63.62434 | 38854 ft | 492 kts | 115° |
| 2026-04-21 12:29 | 22.18398 | 63.69052 | 38839 ft | 488 kts | 116° |
| 2026-04-21 12:30 | 22.15421 | 63.75642 | 38851 ft | 490 kts | 116° |
| 2026-04-21 12:30 | 22.12460 | 63.82190 | 38838 ft | 487 kts | 116° |
| 2026-04-21 12:31 | 22.09482 | 63.88764 | 38862 ft | 490 kts | 116° |
| 2026-04-21 12:31 | 22.06492 | 63.95356 | 38844 ft | 485 kts | 116° |
| 2026-04-21 12:32 | 22.03529 | 64.01881 | 38850 ft | 487 kts | 116° |
| 2026-04-21 12:32 | 22.00565 | 64.08401 | 38844 ft | 485 kts | 116° |
| 2026-04-21 12:33 | 21.97573 | 64.14972 | 38849 ft | 485 kts | 116° |
| 2026-04-21 12:33 | 21.94617 | 64.21458 | 38848 ft | 485 kts | 116° |
| 2026-04-21 12:34 | 21.91639 | 64.27982 | 38842 ft | 484 kts | 116° |
| 2026-04-21 12:34 | 21.88669 | 64.34482 | 38857 ft | 485 kts | 116° |
| 2026-04-21 12:35 | 21.85698 | 64.40974 | 38848 ft | 484 kts | 116° |
| 2026-04-21 12:35 | 21.82716 | 64.47482 | 38857 ft | 484 kts | 116° |
| 2026-04-21 12:36 | 21.79757 | 64.53932 | 38848 ft | 482 kts | 116° |
| 2026-04-21 12:36 | 21.76763 | 64.60449 | 38850 ft | 483 kts | 116° |
| 2026-04-21 12:37 | 21.73787 | 64.66921 | 38850 ft | 484 kts | 116° |
| 2026-04-21 12:37 | 21.70817 | 64.73370 | 38852 ft | 483 kts | 116° |
| 2026-04-21 12:38 | 21.67840 | 64.79828 | 38855 ft | 483 kts | 116° |
| 2026-04-21 12:38 | 21.64840 | 64.86325 | 38853 ft | 482 kts | 116° |
| 2026-04-21 12:39 | 21.61869 | 64.92753 | 38853 ft | 482 kts | 116° |
| 2026-04-21 12:39 | 21.58887 | 64.99196 | 38856 ft | 483 kts | 116° |
| 2026-04-21 12:40 | 21.55896 | 65.05651 | 38857 ft | 481 kts | 116° |
| 2026-04-21 12:40 | 21.52914 | 65.12079 | 38857 ft | 482 kts | 116° |
| 2026-04-21 12:41 | 21.49939 | 65.18481 | 38860 ft | 481 kts | 116° |
| 2026-04-21 12:41 | 21.46939 | 65.24932 | 38863 ft | 482 kts | 116° |
| 2026-04-21 12:42 | 21.43951 | 65.31348 | 38860 ft | 482 kts | 116° |
| 2026-04-21 12:42 | 21.40943 | 65.37800 | 38864 ft | 482 kts | 116° |
| 2026-04-21 12:43 | 21.37938 | 65.44237 | 38865 ft | 481 kts | 116° |
| 2026-04-21 12:43 | 21.34937 | 65.50658 | 38865 ft | 483 kts | 116° |
| 2026-04-21 12:44 | 21.31936 | 65.57069 | 38863 ft | 482 kts | 116° |
| 2026-04-21 12:44 | 21.28936 | 65.63473 | 38874 ft | 481 kts | 116° |
| 2026-04-21 12:45 | 21.25930 | 65.69879 | 38864 ft | 482 kts | 116° |
| 2026-04-21 12:45 | 21.22915 | 65.76299 | 38863 ft | 480 kts | 116° |
| 2026-04-21 12:46 | 21.19919 | 65.82673 | 38863 ft | 483 kts | 116° |
| 2026-04-21 12:46 | 21.16909 | 65.89066 | 38867 ft | 481 kts | 116° |
| 2026-04-21 12:47 | 21.13895 | 65.95460 | 38865 ft | 481 kts | 116° |
| 2026-04-21 12:47 | 21.10884 | 66.01867 | 38867 ft | 480 kts | 115° |
| 2026-04-21 12:48 | 21.07973 | 66.08293 | 38866 ft | 481 kts | 115° |
| 2026-04-21 12:48 | 21.05053 | 66.14734 | 38867 ft | 479 kts | 115° |
| 2026-04-21 12:49 | 21.02129 | 66.21172 | 38868 ft | 481 kts | 115° |
| 2026-04-21 12:49 | 20.99218 | 66.27568 | 38869 ft | 480 kts | 115° |
| 2026-04-21 12:50 | 20.96281 | 66.34010 | 38870 ft | 480 kts | 115° |
| 2026-04-21 12:50 | 20.93368 | 66.40391 | 38868 ft | 481 kts | 115° |
| 2026-04-21 12:51 | 20.90442 | 66.46791 | 38870 ft | 478 kts | 114° |
| 2026-04-21 12:51 | 20.87511 | 66.53197 | 38868 ft | 480 kts | 114° |
| 2026-04-21 12:52 | 20.84566 | 66.59622 | 38870 ft | 479 kts | 115° |
| 2026-04-21 12:52 | 20.81652 | 66.65974 | 38865 ft | 479 kts | 115° |
| 2026-04-21 12:53 | 20.78713 | 66.72372 | 38868 ft | 478 kts | 115° |
| 2026-04-21 12:53 | 20.75785 | 66.78737 | 38867 ft | 478 kts | 115° |
| 2026-04-21 12:54 | 20.72868 | 66.85073 | 38871 ft | 477 kts | 115° |
| 2026-04-21 12:54 | 20.69933 | 66.91440 | 38865 ft | 476 kts | 115° |
| 2026-04-21 12:55 | 20.67022 | 66.97746 | 38866 ft | 476 kts | 115° |
| 2026-04-21 12:55 | 20.64096 | 67.04077 | 38866 ft | 476 kts | 115° |
| 2026-04-21 12:56 | 20.61155 | 67.10435 | 38866 ft | 476 kts | 115° |
| 2026-04-21 12:56 | 20.58243 | 67.16722 | 38868 ft | 475 kts | 115° |
| 2026-04-21 12:57 | 20.55314 | 67.23039 | 38871 ft | 475 kts | 115° |
| 2026-04-21 12:57 | 20.52380 | 67.29359 | 38867 ft | 476 kts | 115° |
| 2026-04-21 12:58 | 20.49444 | 67.35677 | 38869 ft | 476 kts | 114° |
| 2026-04-21 12:58 | 20.46501 | 67.42001 | 38869 ft | 475 kts | 115° |
| 2026-04-21 12:59 | 20.43571 | 67.48290 | 38868 ft | 476 kts | 114° |
| 2026-04-21 12:59 | 20.40636 | 67.54583 | 38867 ft | 476 kts | 114° |
| 2026-04-21 13:00 | 20.37679 | 67.60916 | 38864 ft | 475 kts | 114° |
| 2026-04-21 13:00 | 20.34746 | 67.67190 | 38870 ft | 475 kts | 115° |
| 2026-04-21 13:01 | 20.31803 | 67.73477 | 38870 ft | 476 kts | 115° |
| 2026-04-21 13:01 | 20.28848 | 67.79784 | 38871 ft | 476 kts | 115° |
| 2026-04-21 13:02 | 20.25888 | 67.86095 | 38866 ft | 476 kts | 115° |
| 2026-04-21 13:02 | 20.21449 | 67.95544 | 38861 ft | 476 kts | 115° |
| 2026-04-21 13:03 | 20.18492 | 68.01829 | 38866 ft | 476 kts | 115° |
| 2026-04-21 13:03 | 20.15532 | 68.08115 | 38877 ft | 475 kts | 115° |
| 2026-04-21 13:04 | 20.12563 | 68.14411 | 38861 ft | 477 kts | 115° |
| 2026-04-21 13:04 | 20.09596 | 68.20696 | 38879 ft | 476 kts | 115° |
| 2026-04-21 13:05 | 20.06622 | 68.26988 | 38867 ft | 477 kts | 115° |
| 2026-04-21 13:05 | 20.03643 | 68.33284 | 38866 ft | 478 kts | 115° |
| 2026-04-21 13:06 | 20.00641 | 68.39622 | 38866 ft | 477 kts | 115° |
| 2026-04-21 13:06 | 19.97659 | 68.45911 | 38865 ft | 479 kts | 115° |
| 2026-04-21 13:07 | 19.94663 | 68.52224 | 38886 ft | 479 kts | 115° |
| 2026-04-21 13:07 | 19.91666 | 68.58530 | 38869 ft | 478 kts | 115° |
| 2026-04-21 13:08 | 19.88661 | 68.64845 | 38844 ft | 479 kts | 115° |
| 2026-04-21 13:08 | 19.85638 | 68.71195 | 38841 ft | 481 kts | 115° |
| 2026-04-21 13:09 | 19.82632 | 68.77498 | 38845 ft | 482 kts | 116° |
| 2026-04-21 13:09 | 19.79612 | 68.83823 | 38867 ft | 482 kts | 115° |
| 2026-04-21 13:10 | 19.76588 | 68.90152 | 38882 ft | 482 kts | 116° |
| 2026-04-21 13:10 | 19.73551 | 68.96499 | 38850 ft | 483 kts | 116° |
| 2026-04-21 13:11 | 19.70487 | 69.02898 | 38837 ft | 483 kts | 116° |
| 2026-04-21 13:11 | 19.67448 | 69.09235 | 38848 ft | 485 kts | 116° |
| 2026-04-21 13:12 | 19.64394 | 69.15597 | 38874 ft | 484 kts | 116° |
| 2026-04-21 13:12 | 19.61336 | 69.21960 | 38843 ft | 483 kts | 116° |
| 2026-04-21 13:13 | 19.58273 | 69.28327 | 38839 ft | 486 kts | 116° |
| 2026-04-21 13:13 | 19.55213 | 69.34679 | 38852 ft | 484 kts | 116° |
| 2026-04-21 13:14 | 19.52154 | 69.41073 | 38853 ft | 486 kts | 116° |
| 2026-04-21 13:14 | 19.49104 | 69.47459 | 38834 ft | 485 kts | 116° |
| 2026-04-21 13:15 | 19.46053 | 69.53839 | 38849 ft | 487 kts | 117° |
| 2026-04-21 13:15 | 19.43000 | 69.60213 | 38831 ft | 485 kts | 117° |
| 2026-04-21 13:16 | 19.39951 | 69.66573 | 38834 ft | 486 kts | 117° |
| 2026-04-21 13:16 | 19.36886 | 69.72958 | 38833 ft | 485 kts | 117° |
| 2026-04-21 13:17 | 19.33836 | 69.79304 | 38833 ft | 485 kts | 118° |
| 2026-04-21 13:17 | 19.30782 | 69.85651 | 38823 ft | 486 kts | 118° |
| 2026-04-21 13:18 | 19.27712 | 69.92026 | 38821 ft | 484 kts | 118° |
| 2026-04-21 13:18 | 19.24659 | 69.98358 | 38825 ft | 485 kts | 118° |
| 2026-04-21 13:19 | 19.21594 | 70.04709 | 38831 ft | 483 kts | 118° |
| 2026-04-21 13:19 | 19.18533 | 70.11042 | 38840 ft | 484 kts | 118° |
| 2026-04-21 13:20 | 19.15484 | 70.17372 | 38818 ft | 485 kts | 116° |
| 2026-04-21 13:20 | 19.13560 | 70.24155 | 38816 ft | 487 kts | 99° |
| 2026-04-21 13:21 | 19.13271 | 70.31375 | 38819 ft | 492 kts | 92° |
| 2026-04-21 13:21 | 19.13201 | 70.38574 | 38830 ft | 492 kts | 92° |
| 2026-04-21 13:22 | 19.13122 | 70.45847 | 38819 ft | 493 kts | 92° |
| 2026-04-21 13:22 | 19.13037 | 70.53066 | 38825 ft | 494 kts | 92° |
| 2026-04-21 13:23 | 19.12947 | 70.60324 | 38832 ft | 493 kts | 93° |
| 2026-04-21 13:23 | 19.12853 | 70.67593 | 38826 ft | 496 kts | 94° |
| 2026-04-21 13:24 | 19.12757 | 70.74828 | 38826 ft | 495 kts | 93° |
| 2026-04-21 13:24 | 19.12656 | 70.82120 | 38820 ft | 497 kts | 94° |
| 2026-04-21 13:25 | 19.12553 | 70.89378 | 38817 ft | 496 kts | 94° |
| 2026-04-21 13:25 | 19.12446 | 70.96668 | 38825 ft | 497 kts | 94° |
| 2026-04-21 13:26 | 19.12337 | 71.03960 | 38831 ft | 495 kts | 94° |
| 2026-04-21 13:26 | 19.12225 | 71.11247 | 38824 ft | 497 kts | 94° |
| 2026-04-21 13:27 | 19.12109 | 71.18565 | 38826 ft | 497 kts | 94° |
| 2026-04-21 13:27 | 19.11991 | 71.25839 | 38820 ft | 498 kts | 95° |
| 2026-04-21 13:28 | 19.11869 | 71.33157 | 38824 ft | 498 kts | 95° |
| 2026-04-21 13:28 | 19.11745 | 71.40496 | 38816 ft | 498 kts | 95° |
| 2026-04-21 13:29 | 19.11687 | 71.43858 | 38818 ft | 499 kts | 95° |
| 2026-04-21 13:37 | 19.11673 | 71.44616 | 38814 ft | 500 kts | 95° |
| 2026-04-21 13:38 | 19.11672 | 71.44672 | 38814 ft | 500 kts | 95° |
| 2026-04-21 13:38 | 19.11601 | 71.48773 | 38826 ft | 500 kts | 95° |
| 2026-04-21 13:39 | 19.11505 | 71.54137 | 38816 ft | 500 kts | 95° |
| 2026-04-21 13:39 | 19.11372 | 71.61499 | 38817 ft | 500 kts | 95° |
| 2026-04-21 13:40 | 19.11236 | 71.68816 | 38804 ft | 500 kts | 96° |
| 2026-04-21 13:40 | 19.11097 | 71.76154 | 38809 ft | 501 kts | 96° |
| 2026-04-21 13:41 | 19.10955 | 71.83507 | 38803 ft | 499 kts | 96° |
| 2026-04-21 13:41 | 19.10810 | 71.90850 | 38801 ft | 501 kts | 96° |
| 2026-04-21 13:42 | 19.10661 | 71.98245 | 38801 ft | 502 kts | 97° |
| 2026-04-21 13:42 | 19.10512 | 72.05570 | 38798 ft | 500 kts | 97° |
| 2026-04-21 13:43 | 19.10357 | 72.12957 | 38800 ft | 503 kts | 97° |
| 2026-04-21 13:43 | 19.10199 | 72.20329 | 38796 ft | 503 kts | 97° |
| 2026-04-21 13:44 | 19.10039 | 72.27733 | 38796 ft | 504 kts | 97° |
| 2026-04-21 13:44 | 19.09876 | 72.35108 | 38790 ft | 505 kts | 97° |
| 2026-04-21 13:45 | 19.09708 | 72.42537 | 38790 ft | 507 kts | 98° |
| 2026-04-21 13:45 | 19.09539 | 72.49944 | 38784 ft | 504 kts | 97° |
| 2026-04-21 13:46 | 19.09365 | 72.57340 | 38785 ft | 506 kts | 97° |
| 2026-04-21 13:46 | 19.09188 | 72.64800 | 38783 ft | 510 kts | 98° |
| 2026-04-21 13:47 | 19.09082 | 72.69222 | 38771 ft | 508 kts | 98° |
| 2026-04-21 13:53 | 19.08942 | 72.75039 | 38769 ft | 507 kts | 98° |
| 2026-04-21 13:53 | 19.08715 | 72.82526 | 38768 ft | 509 kts | 102° |
| 2026-04-21 13:54 | 19.08170 | 72.86159 | 38766 ft | 498 kts | 112° |
| 2026-04-21 13:54 | 19.07126 | 72.89625 | 38772 ft | 487 kts | 121° |
| 2026-04-21 13:54 | 19.04143 | 72.95982 | 38761 ft | 483 kts | 126° |
| 2026-04-21 13:55 | 19.01030 | 73.02215 | 38769 ft | 479 kts | 127° |
| 2026-04-21 13:55 | 18.97898 | 73.08412 | 38768 ft | 480 kts | 127° |
| 2026-04-21 13:56 | 18.94733 | 73.14639 | 38782 ft | 479 kts | 127° |
| 2026-04-21 13:56 | 18.92891 | 73.18254 | 38782 ft | 477 kts | 127° |
| 2026-04-21 13:57 | 18.89719 | 73.24461 | 38797 ft | 482 kts | 127° |
| 2026-04-21 13:57 | 18.86547 | 73.30664 | 38816 ft | 480 kts | 127° |
| 2026-04-21 13:58 | 18.83386 | 73.36835 | 38834 ft | 477 kts | 127° |
| 2026-04-21 13:58 | 18.80234 | 73.43001 | 38856 ft | 483 kts | 126° |
| 2026-04-21 13:59 | 18.77346 | 73.49411 | 38898 ft | 483 kts | 124° |
| 2026-04-21 13:59 | 18.74476 | 73.55827 | 38912 ft | 485 kts | 124° |
| 2026-04-21 14:00 | 18.71604 | 73.62212 | 38915 ft | 483 kts | 124° |
| 2026-04-21 14:00 | 18.68714 | 73.68611 | 38904 ft | 484 kts | 124° |
| 2026-04-21 14:01 | 18.65830 | 73.74983 | 38922 ft | 482 kts | 124° |
| 2026-04-21 14:01 | 18.62929 | 73.81377 | 38915 ft | 482 kts | 125° |
| 2026-04-21 14:02 | 18.60056 | 73.87704 | 38920 ft | 481 kts | 125° |
| 2026-04-21 14:03 | 18.55812 | 73.97281 | 38917 ft | 481 kts | 123° |
| 2026-04-21 14:03 | 18.53038 | 74.03717 | 38910 ft | 482 kts | 123° |
| 2026-04-21 14:04 | 18.50246 | 74.10176 | 38913 ft | 485 kts | 123° |
| 2026-04-21 14:04 | 18.47477 | 74.16575 | 38916 ft | 482 kts | 123° |
| 2026-04-21 14:05 | 18.44691 | 74.22997 | 38911 ft | 481 kts | 124° |
| 2026-04-21 14:05 | 18.41919 | 74.29375 | 38920 ft | 482 kts | 124° |
| 2026-04-21 14:06 | 18.39103 | 74.35847 | 38915 ft | 483 kts | 123° |
| 2026-04-21 14:06 | 18.36317 | 74.42244 | 38912 ft | 481 kts | 123° |
| 2026-04-21 14:07 | 18.33529 | 74.48637 | 38907 ft | 481 kts | 124° |
| 2026-04-21 14:07 | 18.30723 | 74.55066 | 38902 ft | 484 kts | 124° |
| 2026-04-21 14:08 | 18.27928 | 74.61467 | 38902 ft | 480 kts | 124° |
| 2026-04-21 14:08 | 18.25116 | 74.67890 | 38882 ft | 482 kts | 124° |
| 2026-04-21 14:09 | 18.22344 | 74.74263 | 38876 ft | 480 kts | 124° |
| 2026-04-21 14:09 | 18.19572 | 74.80671 | 38869 ft | 482 kts | 124° |
| 2026-04-21 14:10 | 18.16811 | 74.87049 | 38865 ft | 482 kts | 124° |
| 2026-04-21 14:10 | 18.14036 | 74.93449 | 38867 ft | 481 kts | 124° |
| 2026-04-21 14:11 | 18.11260 | 74.99841 | 38856 ft | 482 kts | 124° |
| 2026-04-21 14:11 | 18.08474 | 75.06253 | 38854 ft | 482 kts | 124° |
| 2026-04-21 14:12 | 18.05688 | 75.12658 | 38857 ft | 480 kts | 124° |
| 2026-04-21 14:12 | 18.02904 | 75.19046 | 38860 ft | 484 kts | 124° |
| 2026-04-21 14:13 | 18.00116 | 75.25444 | 38859 ft | 480 kts | 124° |
| 2026-04-21 14:13 | 17.97333 | 75.31818 | 38860 ft | 481 kts | 124° |
| 2026-04-21 14:14 | 17.94552 | 75.38180 | 38859 ft | 481 kts | 124° |
| 2026-04-21 14:14 | 17.91751 | 75.44585 | 38856 ft | 480 kts | 124° |
| 2026-04-21 14:15 | 17.88975 | 75.50925 | 38883 ft | 481 kts | 124° |
| 2026-04-21 14:15 | 17.86177 | 75.57304 | 38883 ft | 484 kts | 124° |
| 2026-04-21 14:16 | 17.83381 | 75.63680 | 38880 ft | 480 kts | 124° |
| 2026-04-21 14:16 | 17.80581 | 75.70050 | 38862 ft | 481 kts | 124° |
| 2026-04-21 14:17 | 17.77799 | 75.76380 | 38859 ft | 480 kts | 124° |
| 2026-04-21 14:17 | 17.74988 | 75.82762 | 38858 ft | 482 kts | 124° |
| 2026-04-21 14:18 | 17.72187 | 75.89118 | 38855 ft | 481 kts | 124° |
| 2026-04-21 14:18 | 17.69380 | 75.95483 | 38859 ft | 481 kts | 124° |
| 2026-04-21 14:19 | 17.66578 | 76.01820 | 38857 ft | 478 kts | 124° |
| 2026-04-21 14:19 | 17.63784 | 76.08083 | 38864 ft | 477 kts | 124° |
| 2026-04-21 14:20 | 17.60944 | 76.14431 | 38862 ft | 481 kts | 124° |
| 2026-04-21 14:20 | 17.58119 | 76.20753 | 38862 ft | 478 kts | 124° |
| 2026-04-21 14:21 | 17.55297 | 76.27055 | 38868 ft | 480 kts | 124° |
| 2026-04-21 14:21 | 17.52470 | 76.33365 | 38866 ft | 478 kts | 124° |
| 2026-04-21 14:22 | 17.49664 | 76.39626 | 38871 ft | 476 kts | 124° |
| 2026-04-21 14:22 | 17.48258 | 76.42760 | 38647 ft | 471 kts | 124° |
| 2026-04-21 14:22 | 17.46874 | 76.45846 | 37660 ft | 474 kts | 124° |
| 2026-04-21 14:22 | 17.45469 | 76.48963 | 36607 ft | 478 kts | 124° |
| 2026-04-21 14:23 | 17.44056 | 76.52106 | 35716 ft | 479 kts | 123° |
| 2026-04-21 14:23 | 17.42638 | 76.55257 | 34834 ft | 480 kts | 123° |
| 2026-04-21 14:23 | 17.41212 | 76.58427 | 33910 ft | 481 kts | 123° |
| 2026-04-21 14:23 | 17.39790 | 76.61584 | 32995 ft | 482 kts | 122° |
| 2026-04-21 14:24 | 17.38352 | 76.64775 | 32099 ft | 484 kts | 122° |
| 2026-04-21 14:24 | 17.36924 | 76.67942 | 31161 ft | 487 kts | 121° |
| 2026-04-21 14:24 | 17.35479 | 76.71144 | 30276 ft | 489 kts | 121° |
| 2026-04-21 14:24 | 17.34022 | 76.74374 | 29744 ft | 496 kts | 120° |
| 2026-04-21 14:25 | 17.32589 | 76.77703 | 29159 ft | 509 kts | 115° |
| 2026-04-21 14:25 | 17.31560 | 76.81228 | 28521 ft | 511 kts | 106° |
| 2026-04-21 14:25 | 17.31028 | 76.84894 | 27855 ft | 510 kts | 97° |
| 2026-04-21 14:25 | 17.30831 | 76.88572 | 27215 ft | 505 kts | 95° |
| 2026-04-21 14:26 | 17.30673 | 76.92223 | 26568 ft | 500 kts | 95° |
| 2026-04-21 14:26 | 17.30512 | 76.95851 | 25910 ft | 496 kts | 95° |
| 2026-04-21 14:26 | 17.30348 | 76.99403 | 25259 ft | 491 kts | 95° |
| 2026-04-21 14:26 | 17.30180 | 77.02953 | 24586 ft | 486 kts | 95° |
| 2026-04-21 14:27 | 17.30011 | 77.06435 | 23937 ft | 482 kts | 95° |
| 2026-04-21 14:27 | 17.29839 | 77.09928 | 23235 ft | 477 kts | 94° |
| 2026-04-21 14:27 | 17.29669 | 77.13342 | 22571 ft | 471 kts | 94° |
| 2026-04-21 14:27 | 17.29498 | 77.16747 | 21923 ft | 465 kts | 94° |
| 2026-04-21 14:28 | 17.29329 | 77.20084 | 21264 ft | 460 kts | 94° |
| 2026-04-21 14:28 | 17.29164 | 77.23311 | 20638 ft | 455 kts | 94° |
| 2026-04-21 14:28 | 17.28995 | 77.26592 | 19979 ft | 449 kts | 94° |
| 2026-04-21 14:28 | 17.28827 | 77.29829 | 19331 ft | 444 kts | 94° |
| 2026-04-21 14:29 | 17.28659 | 77.33056 | 18682 ft | 438 kts | 93° |
| 2026-04-21 14:29 | 17.28495 | 77.36208 | 18041 ft | 433 kts | 93° |
| 2026-04-21 14:29 | 17.28332 | 77.39308 | 17410 ft | 428 kts | 92° |
| 2026-04-21 14:29 | 17.28171 | 77.42364 | 16786 ft | 422 kts | 93° |
| 2026-04-21 14:30 | 17.28011 | 77.45391 | 16153 ft | 415 kts | 92° |
| 2026-04-21 14:30 | 17.27852 | 77.48400 | 15564 ft | 404 kts | 93° |
| 2026-04-21 14:30 | 17.27700 | 77.51266 | 14976 ft | 394 kts | 93° |
| 2026-04-21 14:30 | 17.27551 | 77.54083 | 14385 ft | 385 kts | 92° |
| 2026-04-21 14:31 | 17.27403 | 77.56857 | 13786 ft | 377 kts | 93° |
| 2026-04-21 14:31 | 17.27260 | 77.59550 | 13241 ft | 368 kts | 93° |
| 2026-04-21 14:31 | 17.27122 | 77.62144 | 13099 ft | 349 kts | 93° |
| 2026-04-21 14:31 | 17.26989 | 77.64629 | 13016 ft | 330 kts | 93° |
| 2026-04-21 14:32 | 17.26865 | 77.66953 | 12899 ft | 314 kts | 93° |
| 2026-04-21 14:32 | 17.26746 | 77.69187 | 12786 ft | 302 kts | 93° |
| 2026-04-21 14:32 | 17.26629 | 77.71362 | 12644 ft | 293 kts | 93° |
| 2026-04-21 14:32 | 17.26516 | 77.73450 | 12505 ft | 284 kts | 94° |
| 2026-04-21 14:33 | 17.26397 | 77.75497 | 12369 ft | 276 kts | 95° |
| 2026-04-21 14:33 | 17.26231 | 77.77477 | 12064 ft | 276 kts | 95° |
| 2026-04-21 14:33 | 17.26057 | 77.79481 | 11749 ft | 275 kts | 95° |
| 2026-04-21 14:33 | 17.25890 | 77.81478 | 11449 ft | 274 kts | 95° |
| 2026-04-21 14:34 | 17.25727 | 77.83443 | 11154 ft | 273 kts | 95° |
| 2026-04-21 14:34 | 17.25564 | 77.85417 | 10873 ft | 271 kts | 95° |
| 2026-04-21 14:34 | 17.25402 | 77.87385 | 10588 ft | 270 kts | 95° |
| 2026-04-21 14:34 | 17.25242 | 77.89323 | 10308 ft | 268 kts | 95° |
| 2026-04-21 14:35 | 17.25082 | 77.91259 | 10030 ft | 267 kts | 95° |
| 2026-04-21 14:35 | 17.24922 | 77.93192 | 9753 ft | 265 kts | 95° |
| 2026-04-21 14:35 | 17.24764 | 77.95110 | 9474 ft | 264 kts | 95° |
| 2026-04-21 14:35 | 17.24606 | 77.97014 | 9198 ft | 263 kts | 94° |
| 2026-04-21 14:36 | 17.24449 | 77.98906 | 8932 ft | 262 kts | 94° |
| 2026-04-21 14:36 | 17.24291 | 78.00809 | 8655 ft | 261 kts | 94° |
| 2026-04-21 14:36 | 17.24134 | 78.02696 | 8384 ft | 260 kts | 94° |
| 2026-04-21 14:36 | 17.23978 | 78.04578 | 8112 ft | 260 kts | 94° |
| 2026-04-21 14:37 | 17.23822 | 78.06437 | 7843 ft | 259 kts | 94° |
| 2026-04-21 14:37 | 17.23664 | 78.08328 | 7564 ft | 259 kts | 94° |
| 2026-04-21 14:37 | 17.23509 | 78.10191 | 7291 ft | 259 kts | 94° |
| 2026-04-21 14:37 | 17.23352 | 78.12062 | 7019 ft | 259 kts | 94° |
| 2026-04-21 14:38 | 17.23195 | 78.13945 | 6746 ft | 259 kts | 94° |
| 2026-04-21 14:38 | 17.23037 | 78.15817 | 6469 ft | 259 kts | 94° |
| 2026-04-21 14:38 | 17.22880 | 78.17713 | 6151 ft | 261 kts | 93° |
| 2026-04-21 14:38 | 17.22767 | 78.19611 | 5825 ft | 263 kts | 91° |
| 2026-04-21 14:39 | 17.22700 | 78.21511 | 5501 ft | 264 kts | 90° |
| 2026-04-21 14:39 | 17.22666 | 78.23455 | 5167 ft | 266 kts | 89° |
| 2026-04-21 14:39 | 17.22653 | 78.25385 | 4853 ft | 265 kts | 89° |
| 2026-04-21 14:39 | 17.22652 | 78.27277 | 4485 ft | 249 kts | 88° |
| 2026-04-21 14:40 | 17.22662 | 78.28951 | 4228 ft | 221 kts | 87° |
| 2026-04-21 14:40 | 17.22691 | 78.30502 | 3977 ft | 203 kts | 86° |
| 2026-04-21 14:40 | 17.22723 | 78.31928 | 3725 ft | 190 kts | 87° |
| 2026-04-21 14:40 | 17.22746 | 78.33281 | 3491 ft | 176 kts | 87° |
| 2026-04-21 14:41 | 17.22764 | 78.34473 | 3272 ft | 157 kts | 86° |
| 2026-04-21 14:41 | 17.22780 | 78.35579 | 3068 ft | 150 kts | 86° |
| 2026-04-21 14:41 | 17.22796 | 78.36652 | 2865 ft | 146 kts | 86° |
| 2026-04-21 14:41 | 17.22809 | 78.37706 | 2665 ft | 144 kts | 86° |
| 2026-04-21 14:42 | 17.22821 | 78.38752 | 2462 ft | 143 kts | 86° |
| 2026-04-21 14:42 | 17.22834 | 78.39797 | 2261 ft | 143 kts | 86° |
| 2026-04-21 14:42 | 17.22853 | 78.40839 | 2107 ft | 143 kts | 86° |
| 2026-04-21 14:42 | 17.22867 | 78.41862 | 1988 ft | 139 kts | 86° |
| 2026-04-21 14:43 | 17.22880 | 78.42779 | 1998 ft | 104 kts | 89° |
| 2026-04-21 14:43 | 17.22889 | 78.43378 | 2018 ft | 60 kts | 90° |
| 2026-04-21 14:43 | 17.22897 | 78.43746 | 2032 ft | 38 kts | 86° |
| 2026-04-21 14:43 | 17.22960 | 78.43955 | 2038 ft | 25 kts | 58° |
| 2026-04-21 14:44 | 17.23025 | 78.44067 | 2041 ft | 12 kts | 48° |
| 2026-04-21 14:44 | 17.23095 | 78.44054 | 2041 ft | 13 kts | 290° |
| 2026-04-21 14:44 | 17.23101 | 78.43936 | 2038 ft | 18 kts | 266° |
| 2026-04-21 14:44 | 17.23098 | 78.43786 | 2032 ft | 17 kts | 269° |
| 2026-04-21 14:45 | 17.23173 | 78.43701 | 2029 ft | 19 kts | 358° |
| 2026-04-21 14:45 | 17.23305 | 78.43700 | 2026 ft | 14 kts | 340° |
| 2026-04-21 14:45 | 17.23341 | 78.43591 | 2022 ft | 19 kts | 266° |
| 2026-04-21 14:45 | 17.23339 | 78.43440 | 2017 ft | 16 kts | 269° |
| 2026-04-21 14:46 | 17.23338 | 78.43306 | 2015 ft | 14 kts | 269° |
| 2026-04-21 14:46 | 17.23335 | 78.43194 | 2015 ft | 16 kts | 268° |
| 2026-04-21 14:46 | 17.23342 | 78.43136 | 2014 ft | 6 kts | 316° |
| 2026-04-21 14:46 | 17.23397 | 78.43124 | 2012 ft | 7 kts | 0° |
| 2026-04-21 14:47 | 17.23421 | 78.43124 | 2011 ft | 0 kts | 1° |